Dell, MT

10:30 PM MDT on October 25, 2014 (GMT -0600)
Rexburg-Madison County | Change Station
CLOSE
Current Station
Airport
Location: Rexburg,
Elevation: 4859 ft
Nearby Weather Stations

Elev 4859 ft 43.83 °N, 111.81 °W | Updated 37 minutes ago

Partly Cloudy
Partly Cloudy
61 °F
Feels Like 61 °F
N
10
Wind Variable Wind from South

Today
High -- | Low -- °F
--% Chance of Precip.
Yesterday
High -- | Low -- °F
Precip. -- in
7:59 AM 6:29 PM
Waxing Crescent, 6% visible
Pressure 29.73 in
Visibility 10.0 miles
Clouds Mostly Cloudy 11000 ft
Dew Point 33 °F
Humidity 35%
Rainfall 0.00 in
Snow Depth Not available.
UV 0 out of 12
Pollen 2.20 out of 12
Air Quality Not available.
Flu Activity No Activity
METAR KRXE 260353Z AUTO 18009KT 10SM BKN110 16/01 A2979 RMK AO2 SLP066 T01610006

More Conditions Fewer Conditions

Pressure 29.73 in
Visibility 10.0 miles
Clouds Mostly Cloudy 11000 ft
Dew Point 33 °F
Humidity 35%
Rainfall 0.00 in
Snow Depth Not available.
UV 0 out of 12
Pollen 2.20 out of 12
Air Quality Not available.
Flu Activity No Activity
METAR KRXE 260353Z AUTO 18009KT 10SM BKN110 16/01 A2979 RMK AO2 SLP066 T01610006

More Conditions Fewer Conditions

10-Day Weather Forecast

Almanac

Astronomy

Oct. 25, 2014 Rise Set
Actual Time 7:59 AM MDT 6:29 PM MDT
Civil Twilight 7:29 AM MDT 6:59 PM MDT
Nautical Twilight 6:55 AM MDT 7:33 PM MDT
Astronomical Twilight 6:21 AM MDT 8:07 PM MDT
Moon 9:45 AM MDT (10/25) 7:51 PM MDT (10/25)
Length of Visible Light 11h 30m
Length of Day
10h 30m
Tomorrow will be 2m 52s shorter.
Waxing Crescent, 6% of the Moon is Illuminated
Oct 26
Waxing Crescent
Oct 30
First Quarter
Nov 6
Full
Nov 14
Last Quarter
Nov 22
New

Yesterday's Extremes

State Highs State Lows

Community

WunderPhotos

Upload Photos

1,765,110 photos uploaded!

Nearby

Snow Depth

Station Depth Elevation
Beagle Springs 0 in 8850 ft
Divide 0 in 7800 ft
Lemhi Ridge 0 in 8100 ft
Short Creek 0 in 7000 ft
Mule Creek 0 in 8300 ft

Earthquake Activity

City Distance Mag. Time & Date
No recent earthquake activity has been reported nearby.
Minimum magnitude displayed is 2.5.

Coastal Water Temperatures

Place Temperature
No Stations Reporting

Nearby Weather Stations